Rusk, Wisconsin
Current Conditions -  °F | °C
As of 3:15 PM on Thursday 20 Nov 2014 (Local Time) from KLUM Reporting Station
Clear Clear  
Wind Chill:   Ceiling: Unl
Heat Index: 17°   Visibility: 10mi
Dew Point:   Wind: 14mph
Humidity: 47%   Direction: 290°WNW
Pressure: 30.12"   Gusts: 18mph
Location:  44.857°N, 92.0071°W
Report Text: KLUM 202115Z AUTO 29012G16KT 10SM CLR M08/M18 A3012 RMK AO2 T10851180
Loading
Personal Weather Stations






























Interactive Weather Map New forecast layout! Learn more

10-Day Weather Forecast

Advertisements
Track Severe Weather on mobile